Spring Mount, Pennsylvania
Current Conditions -  °F | °C
As of 11:54 AM on Thursday 23 Oct 2014 (Local Time) from KPTW Reporting Station
Overcast Overcast  
Wind Chill: 54°   Ceiling: 4600
Heat Index: 54°   Visibility: 10mi
Dew Point: 45°   Wind: 10mph
Humidity: 72%   Direction: 320°NW
Pressure: 29.81"   Gusts: 21mph
Location:  40.27°N, 75.47°W
Report Text: KPTW 231554Z AUTO 32009G18KT 10SM FEW024 BKN046 OVC095 12/07 A2981 RMK AO2 RAE27 SLP092 P0000 T01220072
Loading
Personal Weather Stations






























Interactive Weather Map
Tropical Storm Tracking
New forecast layout! Learn more

10-Day Weather Forecast

Advertisements
Track Severe Weather on mobile